createdAt,value
2022-12-25T00:01:49.543Z,7.94
2022-12-25T00:04:17.614Z,7.87
2022-12-25T00:06:45.922Z,7.82
2022-12-25T00:09:13.884Z,7.79
2022-12-25T00:11:41.999Z,7.77
2022-12-25T00:14:10.138Z,7.75
2022-12-25T00:16:38.222Z,7.73
2022-12-25T00:19:06.258Z,7.72
2022-12-25T00:21:34.331Z,7.70
2022-12-25T00:24:03.649Z,7.68
2022-12-25T00:26:31.774Z,7.67
2022-12-25T00:28:59.642Z,7.69
2022-12-25T00:31:27.834Z,7.71
2022-12-25T00:33:55.744Z,7.75
2022-12-25T00:36:23.914Z,7.81
2022-12-25T00:38:51.977Z,7.88
2022-12-25T00:41:40.067Z,7.93
2022-12-25T00:44:08.774Z,7.92
2022-12-25T00:46:37.360Z,7.91
2022-12-25T00:49:05.961Z,7.91
2022-12-25T00:51:34.273Z,7.93
2022-12-25T00:54:02.357Z,7.95
2022-12-25T00:56:30.349Z,7.94
2022-12-25T00:58:58.104Z,7.97
2022-12-25T01:01:25.976Z,8.01
2022-12-25T01:03:55.018Z,8.04
2022-12-25T01:06:22.897Z,8.07
2022-12-25T01:09:09.391Z,8.10
2022-12-25T01:11:37.214Z,8.11
2022-12-25T01:14:05.359Z,8.13
2022-12-25T01:16:33.245Z,8.15
2022-12-25T01:19:01.187Z,8.17
2022-12-25T01:21:29.148Z,8.18
2022-12-25T01:23:57.393Z,8.20
2022-12-25T01:26:26.960Z,8.25
2022-12-25T01:28:55.280Z,8.27
2022-12-25T01:31:24.643Z,8.27
2022-12-25T01:33:53.097Z,8.28
2022-12-25T01:36:23.819Z,8.32
2022-12-25T01:38:53.602Z,8.35
2022-12-25T01:41:24.373Z,8.36
2022-12-25T01:44:13.570Z,8.38
2022-12-25T01:46:41.513Z,8.41
2022-12-25T01:49:21.071Z,8.45
2022-12-25T01:51:54.203Z,8.46
2022-12-25T01:54:27.591Z,8.46
2022-12-25T01:56:59.776Z,8.40
2022-12-25T01:59:28.049Z,8.34
2022-12-25T02:02:00.083Z,8.25
2022-12-25T02:04:39.848Z,8.13
2022-12-25T02:07:11.907Z,8.03
2022-12-25T02:09:39.977Z,7.94
2022-12-25T02:12:09.853Z,7.89
2022-12-25T02:14:38.260Z,7.87
2022-12-25T02:17:15.320Z,7.87
2022-12-25T02:20:02.132Z,7.91
2022-12-25T02:22:40.541Z,7.97
2022-12-25T02:25:23.657Z,8.01
2022-12-25T02:28:06.528Z,8.03
2022-12-25T02:30:44.216Z,8.03
2022-12-25T02:33:49.593Z,8.02
2022-12-25T02:36:23.855Z,8.00
2022-12-25T02:39:13.280Z,7.99
2022-12-25T02:41:46.242Z,7.95
2022-12-25T02:44:36.684Z,7.91
2022-12-25T02:47:25.630Z,7.86
2022-12-25T02:50:14.822Z,7.87
2022-12-25T02:53:03.299Z,7.91
2022-12-25T02:55:52.385Z,7.95
2022-12-25T02:58:41.567Z,8.00
2022-12-25T03:01:33.734Z,8.01
2022-12-25T03:04:25.784Z,8.00
2022-12-25T03:07:00.490Z,8.01
2022-12-25T03:09:53.371Z,8.01
2022-12-25T03:13:10.656Z,8.01
2022-12-25T03:16:04.850Z,7.96
2022-12-25T03:18:33.908Z,7.91
2022-12-25T03:21:20.518Z,7.92
2022-12-25T03:24:12.843Z,7.92
2022-12-25T03:26:55.872Z,7.89
2022-12-25T03:29:50.452Z,7.87
2022-12-25T03:32:48.419Z,7.85
2022-12-25T03:35:28.349Z,7.83
2022-12-25T03:38:15.022Z,7.85
2022-12-25T03:41:27.691Z,7.86
2022-12-25T03:45:01.623Z,7.87
2022-12-25T03:47:59.219Z,7.89
2022-12-25T03:50:57.530Z,7.92
2022-12-25T03:53:46.282Z,7.94
2022-12-25T03:56:35.918Z,7.95
2022-12-25T03:59:24.031Z,7.94
2022-12-25T04:02:11.216Z,7.92
2022-12-25T04:04:57.552Z,7.89
2022-12-25T04:07:44.146Z,7.88
2022-12-25T04:10:30.820Z,7.89
2022-12-25T04:13:17.437Z,7.92
2022-12-25T04:16:03.955Z,7.93
2022-12-25T04:18:50.529Z,7.97
2022-12-25T04:21:37.216Z,7.98
2022-12-25T04:24:23.862Z,7.96
2022-12-25T04:27:10.350Z,7.99
2022-12-25T04:29:56.940Z,7.99
2022-12-25T04:32:43.409Z,7.96
2022-12-25T04:35:30.573Z,7.90
2022-12-25T04:37:58.470Z,7.84
2022-12-25T04:40:26.300Z,7.79
2022-12-25T04:42:54.068Z,7.77
2022-12-25T04:45:21.963Z,7.74
2022-12-25T04:47:49.892Z,7.73
2022-12-25T04:50:17.643Z,7.71
2022-12-25T04:52:45.365Z,7.68
2022-12-25T04:55:13.166Z,7.62
2022-12-25T04:57:40.885Z,7.63
2022-12-25T05:00:09.122Z,7.68
2022-12-25T05:02:37.169Z,7.72
2022-12-25T05:05:05.662Z,7.81
2022-12-25T05:07:33.939Z,7.88
2022-12-25T05:10:01.900Z,7.93
2022-12-25T05:12:29.907Z,7.94
2022-12-25T05:14:57.710Z,7.95
2022-12-25T05:17:25.494Z,7.98
2022-12-25T05:19:53.298Z,8.01
2022-12-25T05:22:21.153Z,8.00
2022-12-25T05:24:49.037Z,7.96
2022-12-25T05:27:17.089Z,7.93
2022-12-25T05:29:45.144Z,7.89
2022-12-25T05:32:13.114Z,7.82
2022-12-25T05:34:41.054Z,7.77
2022-12-25T05:37:09.111Z,7.75
2022-12-25T05:39:37.170Z,7.76
2022-12-25T05:42:05.098Z,7.75
2022-12-25T05:44:32.908Z,7.74
2022-12-25T05:47:00.845Z,7.73
2022-12-25T05:49:28.817Z,7.70
2022-12-25T05:51:56.698Z,7.67
2022-12-25T05:54:24.859Z,7.64
2022-12-25T05:56:52.825Z,7.60
2022-12-25T05:59:20.773Z,7.56
2022-12-25T06:01:48.901Z,7.50
2022-12-25T06:04:16.841Z,7.43
2022-12-25T06:06:44.852Z,7.37
2022-12-25T06:09:13.576Z,7.32
2022-12-25T06:11:42.110Z,7.28
2022-12-25T06:14:13.627Z,7.24
2022-12-25T06:16:41.624Z,7.17
2022-12-25T06:19:09.727Z,7.11
2022-12-25T06:21:37.743Z,7.07
2022-12-25T06:24:06.002Z,7.03
2022-12-25T06:26:34.144Z,7.00
2022-12-25T06:29:02.147Z,6.98
2022-12-25T06:31:30.132Z,6.94
2022-12-25T06:33:57.989Z,6.89
2022-12-25T06:36:29.338Z,6.85
2022-12-25T06:39:01.342Z,6.81
2022-12-25T06:41:30.396Z,6.78
2022-12-25T06:44:01.294Z,6.78
2022-12-25T06:46:30.514Z,6.77
2022-12-25T06:48:59.403Z,6.76
2022-12-25T06:51:31.357Z,6.75
2022-12-25T06:54:04.075Z,6.76
2022-12-25T06:56:33.898Z,6.75
2022-12-25T06:59:07.640Z,6.73
2022-12-25T07:01:44.212Z,6.73
2022-12-25T07:04:25.544Z,6.73
2022-12-25T07:06:53.583Z,6.71
2022-12-25T07:09:21.419Z,6.72
2022-12-25T07:11:49.290Z,6.74
2022-12-25T07:14:24.435Z,6.76
2022-12-25T07:16:52.568Z,6.78
2022-12-25T07:19:20.511Z,6.81
2022-12-25T07:21:48.419Z,6.86
2022-12-25T07:24:23.733Z,6.90
2022-12-25T07:26:51.822Z,6.95
2022-12-25T07:29:19.909Z,6.98
2022-12-25T07:31:48.094Z,6.97
2022-12-25T07:34:19.400Z,6.95
2022-12-25T07:36:47.413Z,6.95
2022-12-25T07:39:16.379Z,6.95
2022-12-25T07:41:44.831Z,6.94
2022-12-25T07:44:16.416Z,6.94
2022-12-25T07:46:44.319Z,6.97
2022-12-25T07:49:12.455Z,7.00
2022-12-25T07:51:40.350Z,7.04
2022-12-25T07:54:08.437Z,7.08
2022-12-25T07:56:36.417Z,7.10
2022-12-25T07:59:04.292Z,7.14
2022-12-25T08:01:32.363Z,7.15
2022-12-25T08:04:02.382Z,7.17
2022-12-25T08:06:33.040Z,7.18
2022-12-25T08:09:09.730Z,7.20
2022-12-25T08:11:38.654Z,7.25
2022-12-25T08:14:08.017Z,7.29
2022-12-25T08:16:36.535Z,7.38
2022-12-25T08:19:04.414Z,7.72
2022-12-25T08:21:32.188Z,8.23
2022-12-25T08:24:00.160Z,8.80
2022-12-25T08:26:28.161Z,9.32
2022-12-25T08:28:56.141Z,9.67
2022-12-25T08:31:26.838Z,9.96
2022-12-25T08:33:56.944Z,10.17
2022-12-25T08:36:24.926Z,10.31
2022-12-25T08:38:57.012Z,10.51
2022-12-25T08:41:27.186Z,10.83
2022-12-25T08:43:55.066Z,11.39
2022-12-25T08:46:23.470Z,12.15
2022-12-25T08:48:51.449Z,13.00
2022-12-25T08:51:20.519Z,13.86
2022-12-25T08:53:49.897Z,14.56
2022-12-25T08:59:21.708Z,16.10
2022-12-25T09:01:49.879Z,16.67
2022-12-25T09:04:17.911Z,17.19
2022-12-25T09:06:45.751Z,17.73
2022-12-25T09:09:13.667Z,18.24
2022-12-25T09:11:41.670Z,18.68
2022-12-25T09:14:09.936Z,18.91
2022-12-25T09:16:37.885Z,18.99
2022-12-25T09:19:05.690Z,19.02
2022-12-25T09:21:33.558Z,19.23
2022-12-25T09:24:01.452Z,19.59
2022-12-25T09:26:29.431Z,20.04
2022-12-25T09:28:57.703Z,20.49
2022-12-25T09:31:25.894Z,20.89
2022-12-25T09:33:58.033Z,21.23
2022-12-25T09:36:26.325Z,21.51
2022-12-25T09:38:54.239Z,21.61
2022-12-25T09:41:28.445Z,21.67
2022-12-25T09:44:01.057Z,21.86
2022-12-25T09:46:39.550Z,22.04
2022-12-25T09:49:15.812Z,22.18
2022-12-25T09:51:44.512Z,22.33
2022-12-25T09:54:49.949Z,22.51
2022-12-25T09:57:17.963Z,22.84
2022-12-25T09:59:47.571Z,23.02
2022-12-25T10:02:24.668Z,23.20
2022-12-25T10:05:27.403Z,23.31
2022-12-25T10:08:23.228Z,23.23
2022-12-25T10:10:55.291Z,23.09
2022-12-25T10:13:50.302Z,23.21
2022-12-25T10:16:39.868Z,23.47
2022-12-25T10:19:17.892Z,23.37
2022-12-25T10:21:46.558Z,23.20
2022-12-25T10:24:30.755Z,22.92
2022-12-25T10:27:04.861Z,22.72
2022-12-25T10:29:35.673Z,22.78
2022-12-25T10:32:04.462Z,23.16
2022-12-25T10:34:32.600Z,23.65
2022-12-25T10:37:02.122Z,24.13
2022-12-25T10:39:30.391Z,24.36
2022-12-25T10:42:04.438Z,24.47
2022-12-25T10:44:33.432Z,24.62
2022-12-25T10:47:04.248Z,24.82
2022-12-25T10:49:36.953Z,25.01
2022-12-25T10:52:19.155Z,25.05
2022-12-25T10:54:47.193Z,25.09
2022-12-25T11:01:33.544Z,25.08
2022-12-25T11:04:02.286Z,25.36
2022-12-25T11:06:32.491Z,25.58
2022-12-25T11:09:02.471Z,25.64
2022-12-25T11:11:30.915Z,25.60
2022-12-25T11:14:03.214Z,25.56
2022-12-25T11:16:38.149Z,25.63
2022-12-25T11:19:25.053Z,25.71
2022-12-25T11:21:55.995Z,25.95
2022-12-25T11:24:30.135Z,26.02
2022-12-25T11:27:04.584Z,25.71
2022-12-25T11:29:49.271Z,25.54
2022-12-25T11:32:23.443Z,25.33
2022-12-25T11:34:51.488Z,25.25
2022-12-25T11:37:33.496Z,25.35
2022-12-25T11:40:02.707Z,25.44
2022-12-25T11:42:40.147Z,25.39
2022-12-25T11:45:21.252Z,25.38
2022-12-25T11:47:49.531Z,25.61
2022-12-25T11:50:56.521Z,25.85
2022-12-25T11:53:39.894Z,26.14
2022-12-25T11:56:14.936Z,25.92
2022-12-25T11:58:50.442Z,25.62
2022-12-25T12:01:30.810Z,25.55
2022-12-25T12:04:02.146Z,25.71
2022-12-25T12:06:40.454Z,26.06
2022-12-25T12:09:26.609Z,26.55
2022-12-25T12:12:17.731Z,26.97
2022-12-25T12:14:56.263Z,27.17
2022-12-25T12:17:24.416Z,27.15
2022-12-25T12:19:53.071Z,26.91
2022-12-25T12:22:25.686Z,26.46
2022-12-25T12:24:56.144Z,26.00
2022-12-25T12:27:33.127Z,25.74
2022-12-25T12:30:01.971Z,25.76
2022-12-25T12:32:47.783Z,25.80
2022-12-25T12:35:38.393Z,25.49
2022-12-25T12:38:17.380Z,25.04
2022-12-25T12:40:53.857Z,24.87
2022-12-25T12:43:36.476Z,24.66
2022-12-25T12:46:18.732Z,24.41
2022-12-25T12:48:51.551Z,23.91
2022-12-25T12:51:34.027Z,23.42
2022-12-25T12:54:22.268Z,23.34
2022-12-25T12:56:59.360Z,23.55
2022-12-25T12:59:37.057Z,23.79
2022-12-25T13:02:39.143Z,23.83
2022-12-25T13:05:15.896Z,23.59
2022-12-25T13:07:55.988Z,23.57
2022-12-25T13:10:32.404Z,23.57
2022-12-25T13:13:04.892Z,23.58
2022-12-25T13:15:34.597Z,23.60
2022-12-25T13:18:07.122Z,23.50
2022-12-25T13:21:18.223Z,23.48
2022-12-25T13:23:46.205Z,23.24
2022-12-25T13:26:17.165Z,23.01
2022-12-25T13:28:47.964Z,22.70
2022-12-25T13:31:23.585Z,22.34
2022-12-25T13:33:51.551Z,21.84
2022-12-25T13:36:19.589Z,21.49
2022-12-25T13:38:49.269Z,21.21
2022-12-25T13:41:40.140Z,21.04
2022-12-25T13:44:22.460Z,20.83
2022-12-25T13:46:50.712Z,20.68
2022-12-25T13:49:21.381Z,20.54
2022-12-25T13:51:50.534Z,20.20
2022-12-25T13:54:19.466Z,19.74
2022-12-25T13:56:49.682Z,19.12
2022-12-25T13:59:19.295Z,18.40
2022-12-25T14:01:47.969Z,17.63
2022-12-25T14:04:22.272Z,16.92
2022-12-25T14:06:51.167Z,16.21
2022-12-25T14:09:20.335Z,15.59
2022-12-25T14:11:52.417Z,15.09
2022-12-25T14:14:22.297Z,14.70
2022-12-25T14:16:53.597Z,14.37
2022-12-25T14:19:33.359Z,13.99
2022-12-25T14:22:03.148Z,13.49
2022-12-25T14:24:33.330Z,13.16
2022-12-25T14:27:05.414Z,12.95
2022-12-25T14:29:39.529Z,12.79
2022-12-25T14:32:08.200Z,12.66
2022-12-25T14:34:36.220Z,12.48
2022-12-25T14:37:04.693Z,12.29
2022-12-25T14:39:34.957Z,12.11
2022-12-25T14:42:22.959Z,11.94
2022-12-25T14:45:03.525Z,11.78
2022-12-25T14:47:33.708Z,11.66
2022-12-25T14:50:01.581Z,11.57
2022-12-25T14:52:43.718Z,11.56
2022-12-25T14:55:21.570Z,11.57
2022-12-25T14:57:53.775Z,11.58
2022-12-25T15:00:29.962Z,11.59
2022-12-25T15:02:59.989Z,11.59
2022-12-25T15:05:37.457Z,11.58
2022-12-25T15:08:11.412Z,11.57
2022-12-25T15:13:29.427Z,11.47
2022-12-25T15:16:12.649Z,11.43
2022-12-25T15:18:43.894Z,11.38
2022-12-25T15:21:17.594Z,11.34
2022-12-25T15:23:45.540Z,11.29
2022-12-25T15:26:14.142Z,11.21
2022-12-25T15:28:42.562Z,11.11
2022-12-25T15:31:35.204Z,11.03
2022-12-25T15:34:14.703Z,10.96
2022-12-25T15:36:42.830Z,10.92
2022-12-25T15:39:10.790Z,10.87
2022-12-25T15:41:58.287Z,10.83
2022-12-25T15:44:26.450Z,10.80
2022-12-25T15:46:54.780Z,10.78
2022-12-25T15:49:22.710Z,10.74
2022-12-25T15:51:50.577Z,10.72
2022-12-25T15:54:18.600Z,10.72
2022-12-25T15:56:57.070Z,10.74
2022-12-25T15:59:25.077Z,10.74
2022-12-25T16:01:56.749Z,10.71
2022-12-25T16:04:26.715Z,10.60
2022-12-25T16:06:55.812Z,10.47
2022-12-25T16:09:23.822Z,10.36
2022-12-25T16:11:51.591Z,10.25
2022-12-25T16:14:19.705Z,10.16
2022-12-25T16:16:47.717Z,10.10
2022-12-25T16:19:15.663Z,10.01
2022-12-25T16:21:44.833Z,9.93
2022-12-25T16:24:13.715Z,9.85
2022-12-25T16:26:42.507Z,9.78
2022-12-25T16:29:10.532Z,9.72
2022-12-25T16:31:38.846Z,9.70
2022-12-25T16:34:07.329Z,9.66
2022-12-25T16:36:36.911Z,9.63
2022-12-25T16:39:05.354Z,9.60
2022-12-25T16:41:33.171Z,9.51
2022-12-25T16:44:09.436Z,9.38
2022-12-25T16:46:39.993Z,9.25
2022-12-25T16:49:08.788Z,9.14
2022-12-25T16:51:36.888Z,9.02
2022-12-25T16:54:04.951Z,8.90
2022-12-25T16:56:32.803Z,8.93
2022-12-25T16:59:01.130Z,8.98
2022-12-25T17:01:29.736Z,9.05
2022-12-25T17:04:02.878Z,9.13
2022-12-25T17:06:30.954Z,9.20
2022-12-25T17:08:59.829Z,9.23
2022-12-25T17:11:30.074Z,9.27
2022-12-25T17:14:02.194Z,9.33
2022-12-25T17:16:35.780Z,9.34
2022-12-25T17:19:19.409Z,9.34
2022-12-25T17:21:47.459Z,9.32
2022-12-25T17:24:15.971Z,9.30
2022-12-25T17:26:44.535Z,9.25
2022-12-25T17:29:15.912Z,9.17
2022-12-25T17:31:46.774Z,9.13
2022-12-25T17:34:15.068Z,9.12
2022-12-25T17:36:42.917Z,9.11
2022-12-25T17:39:11.238Z,9.13
2022-12-25T17:41:39.486Z,9.10
2022-12-25T17:44:07.388Z,9.03
2022-12-25T17:46:35.349Z,9.00
2022-12-25T17:49:03.407Z,8.99
2022-12-25T17:51:31.988Z,8.98
2022-12-25T17:54:05.395Z,8.99
2022-12-25T17:56:33.540Z,9.01
2022-12-25T17:59:12.208Z,8.94
2022-12-25T18:01:40.450Z,8.90
2022-12-25T18:04:08.436Z,8.87
2022-12-25T18:06:37.218Z,8.87
2022-12-25T18:09:06.390Z,8.91
2022-12-25T18:11:37.617Z,8.96
2022-12-25T18:14:06.410Z,9.02
2022-12-25T18:16:36.876Z,9.02
2022-12-25T18:19:05.374Z,8.95
2022-12-25T18:21:33.366Z,8.89
2022-12-25T18:24:06.331Z,8.85
2022-12-25T18:26:34.562Z,8.81
2022-12-25T18:29:03.041Z,8.78
2022-12-25T18:31:31.136Z,8.78
2022-12-25T18:33:59.929Z,8.76
2022-12-25T18:36:29.595Z,8.72
2022-12-25T18:38:58.824Z,8.70
2022-12-25T18:41:28.436Z,8.67
2022-12-25T18:43:57.499Z,8.67
2022-12-25T18:46:26.811Z,8.63
2022-12-25T18:48:56.544Z,8.55
2022-12-25T18:51:24.802Z,8.53
2022-12-25T18:53:52.760Z,8.52
2022-12-25T18:56:20.846Z,8.52
2022-12-25T18:58:48.664Z,8.42
2022-12-25T19:01:19.803Z,8.37
2022-12-25T19:03:51.766Z,8.37
2022-12-25T19:06:24.298Z,8.32
2022-12-25T19:08:52.574Z,8.31
2022-12-25T19:11:21.802Z,8.32
2022-12-25T19:13:49.820Z,8.28
2022-12-25T19:16:18.245Z,8.24
2022-12-25T19:18:46.463Z,8.19
2022-12-25T19:21:14.262Z,8.20
2022-12-25T19:23:42.184Z,8.25
2022-12-25T19:26:10.684Z,8.25
2022-12-25T19:28:39.749Z,8.20
2022-12-25T19:31:08.442Z,8.15
2022-12-25T19:33:40.740Z,8.11
2022-12-25T19:36:12.284Z,8.05
2022-12-25T19:38:40.348Z,8.01
2022-12-25T19:41:09.183Z,7.98
2022-12-25T19:43:39.343Z,7.98
2022-12-25T19:46:10.581Z,8.01
2022-12-25T19:48:38.451Z,8.01
2022-12-25T19:51:19.729Z,8.03
2022-12-25T19:53:48.205Z,7.99
2022-12-25T19:56:16.466Z,7.97
2022-12-25T19:58:44.930Z,7.94
2022-12-25T20:01:17.035Z,7.99
2022-12-25T20:03:46.368Z,8.01
2022-12-25T20:06:20.050Z,8.00
2022-12-25T20:08:49.772Z,8.01
2022-12-25T20:11:17.997Z,8.01
2022-12-25T20:13:46.386Z,8.01
2022-12-25T20:16:14.349Z,7.99
2022-12-25T20:18:42.523Z,7.95
2022-12-25T20:21:16.538Z,7.90
2022-12-25T20:23:45.826Z,7.85
2022-12-25T20:26:15.309Z,7.82
2022-12-25T20:28:43.707Z,7.83
2022-12-25T20:31:17.072Z,7.86
2022-12-25T20:33:45.853Z,7.85
2022-12-25T20:36:14.210Z,7.87
2022-12-25T20:38:42.516Z,7.90
2022-12-25T20:41:29.989Z,7.93
2022-12-25T20:43:58.445Z,7.90
2022-12-25T20:46:26.610Z,7.86
2022-12-25T20:48:54.719Z,7.79
2022-12-25T20:51:25.687Z,7.74
2022-12-25T20:53:55.292Z,7.75
2022-12-25T20:56:26.313Z,7.78
2022-12-25T20:58:59.831Z,7.79
2022-12-25T21:01:28.751Z,7.80
2022-12-25T21:03:57.027Z,7.80
2022-12-25T21:06:25.277Z,7.78
2022-12-25T21:08:53.111Z,7.79
2022-12-25T21:11:22.045Z,7.81
2022-12-25T21:13:50.127Z,7.85
2022-12-25T21:16:21.682Z,7.88
2022-12-25T21:18:50.385Z,7.86
2022-12-25T21:21:19.342Z,7.75
2022-12-25T21:23:47.611Z,7.65
2022-12-25T21:26:22.845Z,7.56
2022-12-25T21:28:54.413Z,7.49
2022-12-25T21:31:22.906Z,7.46
2022-12-25T21:33:54.630Z,7.46
2022-12-25T21:36:27.393Z,7.48
2022-12-25T21:39:02.441Z,7.49
2022-12-25T21:41:32.241Z,7.51
2022-12-25T21:44:00.766Z,7.55
2022-12-25T21:46:29.208Z,7.59
2022-12-25T21:48:57.442Z,7.60
2022-12-25T21:51:48.643Z,7.56
2022-12-25T21:54:18.458Z,7.51
2022-12-25T21:56:47.323Z,7.45
2022-12-25T21:59:20.113Z,7.40
2022-12-25T22:01:50.141Z,7.35
2022-12-25T22:04:20.454Z,7.31
2022-12-25T22:07:07.443Z,7.28
2022-12-25T22:09:35.315Z,7.29
2022-12-25T22:12:22.315Z,7.34
2022-12-25T22:14:54.269Z,7.45
2022-12-25T22:17:47.073Z,7.56
2022-12-25T22:20:24.196Z,7.64
2022-12-25T22:22:52.693Z,7.64
2022-12-25T22:25:20.683Z,7.60
2022-12-25T22:27:48.844Z,7.59
2022-12-25T22:30:19.769Z,7.59
2022-12-25T22:32:48.767Z,7.58
2022-12-25T22:35:17.538Z,7.58
2022-12-25T22:37:45.597Z,7.57
2022-12-25T22:40:14.634Z,7.58
2022-12-25T22:42:42.625Z,7.57
2022-12-25T22:45:12.199Z,7.54
2022-12-25T22:47:40.467Z,7.51
2022-12-25T22:50:09.193Z,7.50
2022-12-25T22:52:37.323Z,7.50
2022-12-25T22:55:07.686Z,7.55
2022-12-25T22:57:35.990Z,7.55
2022-12-25T23:00:06.082Z,7.54
2022-12-25T23:02:35.405Z,7.51
2022-12-25T23:05:04.126Z,7.58
2022-12-25T23:07:32.069Z,7.61
2022-12-25T23:09:59.908Z,7.63
2022-12-25T23:12:46.431Z,7.61
2022-12-25T23:15:14.460Z,7.56
2022-12-25T23:18:00.661Z,7.52
2022-12-25T23:20:47.275Z,7.50
2022-12-25T23:23:35.439Z,7.52
2022-12-25T23:26:09.973Z,7.57
2022-12-25T23:29:00.684Z,7.56
2022-12-25T23:31:35.994Z,7.45
2022-12-25T23:34:05.378Z,7.32
2022-12-25T23:36:34.127Z,7.21
2022-12-25T23:39:08.956Z,7.17
2022-12-25T23:41:39.701Z,7.17
2022-12-25T23:44:08.244Z,7.14
2022-12-25T23:46:37.337Z,7.11
2022-12-25T23:49:06.315Z,7.07
2022-12-25T23:51:39.528Z,7.02
2022-12-25T23:54:08.395Z,6.98
2022-12-25T23:56:37.113Z,6.98
2022-12-25T23:59:05.997Z,7.00
